Terminal Aerodrome Forecast
Issued by NWS Charleston, WV

Current Version | Previous Version | Graphics & Text | Print | Product List | Glossary On
Versions: 1 2 3 4 5 6 7 8 9 10 11 12 13 14 15 16 17 18 19 20 21 22 23 24 25 26 27 28 29 30
000
FTUS41 KRLX 171746
TAFBKW
TAF
KBKW 171746Z 1718/1818 25015G27KT P6SM SCT025
     FM180000 24009G16KT P6SM FEW025
     FM180300 24005KT P6SM FEW035
     FM180900 VRB03KT P6SM BKN035
     FM181300 24006KT P6SM SCT030=

USA.gov is the U.S. government's official web portal to all federal, state and local government web resources and services.